Eiwamaru — JG5742 — position and weather

sailwx.info

Track history (hours):
 
Tides and Currents Weather Stations Pressure Air Temp Water Temp Dewpoint Dewpoint Depression Visibility Wind Speed Wind Dir Waves Ship Positions

Eiwamaru

Last reported at 2015-Jul-28 21:31 UTC. Time now 2015-Aug-01 01:30 UTC.
Position N 35°28' E 140°51'.

Length 80 m; draft 3.8 m.

Type: Tanker. MMSI: 431101045.

Date/timePositionNaut miles runAvg speedWind from/ knotsBaromVisibWave heightAir tempDewpointWater temp
2015-Jul-28 21:31N 35°28' E 140°51'1313.5
2015-Jul-28 20:33N 35°38' E 141°02'1313.4
2015-Jul-28 19:33N 35°51' E 141°01'1413.9
2015-Jul-28 18:33N 36°05' E 141°02'1513.9
2015-Jul-28 17:28N 36°20' E 141°04'1314.0
2015-Jul-28 16:33N 36°33' E 141°05'0 0.0
2015-Jul-27 13:25N 36°32' E 141°05'1213.1
2015-Jul-27 12:32N 36°21' E 141°04'1413.4
2015-Jul-27 11:29N 36°07' E 141°02'3013.4
2015-Jul-27 09:12N 35°37' E 140°54'1014.1
2015-Jul-27 08:31N 35°29' E 140°47'1514.5
2015-Jul-27 07:30N 35°17' E 140°37'2814.2
2015-Jul-27 05:33N 34°58' E 140°12'1413.5
2015-Jul-27 04:31N 34°51' E 139°58'1312.9
2015-Jul-27 03:31N 34°56' E 139°43'1313.3
2015-Jul-27 02:33N 35°09' E 139°45'1212.1
2015-Jul-27 01:33N 35°21' E 139°42'1010.4
2015-Jul-27 00:33N 35°31' E 139°46'0 0.0
2015-Jul-26 23:33N 35°31' E 139°46'0 0.0
2015-Jul-26 22:33N 35°31' E 139°46'2 2.1
2015-Jul-26 21:33N 35°29' E 139°48'1 0.8
2015-Jul-26 20:33N 35°28' E 139°48'0 0.0
2015-Jul-26 19:33N 35°28' E 139°48'0 0.0
2015-Jul-26 18:33N 35°28' E 139°48'1 0.5
2015-Jul-26 17:33N 35°28' E 139°48'1211.7
2015-Jul-26 16:33N 35°16' E 139°47'1212.4
2015-Jul-26 15:34N 35°04' E 139°44'1714.8
2015-Jul-26 14:25N 34°54' E 139°27'  
2015-Jul-23 09:32N 34°07' E 135°07'1 0.2
2015-Jul-23 07:16N 34°07' E 135°08'0 0.0
2015-Jul-23 06:29N 34°07' E 135°08'0 0.0
2015-Jul-23 05:30N 34°07' E 135°08'0 0.0
2015-Jul-23 04:31N 34°07' E 135°08'0 0.1
2015-Jul-23 03:23N 34°07' E 135°08'0 0.6
2015-Jul-23 02:33N 34°07' E 135°07'222 6.0
2015-Jul-21 13:20N 35°00' E 139°29'2011.1
2015-Jul-21 11:33N 35°14' E 139°46'1111.2
2015-Jul-21 10:33N 35°24' E 139°43'1211.5
2015-Jul-21 09:33N 35°30' E 139°55'6 5.9
2015-Jul-21 08:33N 35°31' E 140°03'0 0.0
2015-Jul-21 07:33N 35°31' E 140°03'0 0.0
2015-Jul-21 06:33N 35°31' E 140°03'0 0.0
2015-Jul-21 05:33N 35°31' E 140°03'0 0.0
2015-Jul-21 04:33N 35°31' E 140°03'0 0.0
2015-Jul-21 03:33N 35°31' E 140°03'0 0.0
2015-Jul-21 02:33N 35°31' E 140°03'0 0.0
2015-Jul-21 01:33N 35°31' E 140°03'1 1.2
2015-Jul-21 00:32N 35°32' E 140°02'0 0.0
2015-Jul-20 23:33N 35°32' E 140°02'0 0.0
2015-Jul-20 22:33N 35°32' E 140°02'0 0.1
2015-Jul-20 21:33N 35°32' E 140°02'5 5.3
2015-Jul-20 20:32N 35°36' E 140°06'0 0.0
2015-Jul-20 19:33N 35°36' E 140°06'0 0.0
2015-Jul-20 18:33N 35°36' E 140°06'0 0.0
2015-Jul-20 17:33N 35°36' E 140°06'0 0.0
2015-Jul-20 16:33N 35°36' E 140°06'0 0.0
2015-Jul-20 15:33N 35°36' E 140°06'0 0.0
2015-Jul-20 14:33N 35°36' E 140°06'0 0.0
2015-Jul-20 13:33N 35°36' E 140°06'0 0.0
2015-Jul-20 12:33N 35°36' E 140°06'0 0.0
2015-Jul-20 11:33N 35°36' E 140°06'0 0.0
2015-Jul-20 10:33N 35°36' E 140°06'0 0.0
2015-Jul-20 09:33N 35°36' E 140°06'0 0.0
2015-Jul-20 08:33N 35°36' E 140°06'0 0.0
2015-Jul-20 07:32N 35°36' E 140°06'0 0.0
2015-Jul-20 06:33N 35°36' E 140°06'0 0.0
2015-Jul-20 05:33N 35°36' E 140°06'0 0.0
2015-Jul-20 04:33N 35°36' E 140°06'0 0.0
2015-Jul-20 03:33N 35°36' E 140°06'0 0.0
2015-Jul-20 02:33N 35°36' E 140°06'0 0.0
2015-Jul-20 01:33N 35°36' E 140°06'0 0.0
2015-Jul-20 00:33N 35°36' E 140°06'0 0.0
2015-Jul-19 23:33N 35°36' E 140°06'1 0.6
2015-Jul-19 22:33N 35°35' E 140°05'4 4.0
2015-Jul-19 21:33N 35°33' E 140°01'0 0.0
2015-Jul-19 20:33N 35°33' E 140°02'0 0.0
2015-Jul-19 19:33N 35°33' E 140°02'0 0.0
2015-Jul-19 18:33N 35°33' E 140°02'0 0.1
2015-Jul-19 17:33N 35°33' E 140°02'0 0.1
2015-Jul-19 16:33N 35°33' E 140°02'0 0.0
2015-Jul-19 15:33N 35°33' E 140°02'0 0.0
2015-Jul-19 14:33N 35°33' E 140°02'0 0.0
2015-Jul-19 13:33N 35°33' E 140°02'0 0.0
2015-Jul-19 12:31N 35°33' E 140°02'0 0.0
2015-Jul-19 11:33N 35°33' E 140°02'0 0.0
2015-Jul-19 10:33N 35°33' E 140°02'0 0.0
2015-Jul-19 09:32N 35°33' E 140°02'0 0.0
2015-Jul-19 08:33N 35°33' E 140°02'0 0.0
2015-Jul-19 07:33N 35°33' E 140°02'0 0.0
2015-Jul-19 06:33N 35°33' E 140°02'1010.3
2015-Jul-19 05:33N 35°30' E 139°50'3 3.4
2015-Jul-19 04:33N 35°32' E 139°46'0 0.0
2015-Jul-19 00:33N 35°32' E 139°46'0 0.2
2015-Jul-18 23:33N 35°31' E 139°46'7 6.8
2015-Jul-18 22:33N 35°30' E 139°54'4 4.4
2015-Jul-18 21:33N 35°31' E 139°59'  
Track history (hours):
 
Tides and Currents Weather Stations Pressure Air Temp Water Temp Dewpoint Dewpoint Depression Visibility Wind Speed Wind Dir Waves Ship Positions

Eiwamaru

Last reported at 2015-Jul-28 21:31 UTC. Time now 2015-Aug-01 01:30 UTC.
Position N 35°28' E 140°51'.

Length 80 m; draft 3.8 m.

Type: Tanker. MMSI: 431101045.

Date/timePositionNaut miles runAvg speedWind from/ knotsBaromVisibWave heightAir tempDewpointWater temp
2015-Jul-28 21:31N 35°28' E 140°51'1313.5
2015-Jul-28 20:33N 35°38' E 141°02'1313.4
2015-Jul-28 19:33N 35°51' E 141°01'1413.9
2015-Jul-28 18:33N 36°05' E 141°02'1513.9
2015-Jul-28 17:28N 36°20' E 141°04'1314.0
2015-Jul-28 16:33N 36°33' E 141°05'0 0.0
2015-Jul-27 13:25N 36°32' E 141°05'1213.1
2015-Jul-27 12:32N 36°21' E 141°04'1413.4
2015-Jul-27 11:29N 36°07' E 141°02'3013.4
2015-Jul-27 09:12N 35°37' E 140°54'1014.1
2015-Jul-27 08:31N 35°29' E 140°47'1514.5
2015-Jul-27 07:30N 35°17' E 140°37'2814.2
2015-Jul-27 05:33N 34°58' E 140°12'1413.5
2015-Jul-27 04:31N 34°51' E 139°58'1312.9
2015-Jul-27 03:31N 34°56' E 139°43'1313.3
2015-Jul-27 02:33N 35°09' E 139°45'1212.1
2015-Jul-27 01:33N 35°21' E 139°42'1010.4
2015-Jul-27 00:33N 35°31' E 139°46'0 0.0
2015-Jul-26 23:33N 35°31' E 139°46'0 0.0
2015-Jul-26 22:33N 35°31' E 139°46'2 2.1
2015-Jul-26 21:33N 35°29' E 139°48'1 0.8
2015-Jul-26 20:33N 35°28' E 139°48'0 0.0
2015-Jul-26 19:33N 35°28' E 139°48'0 0.0
2015-Jul-26 18:33N 35°28' E 139°48'1 0.5
2015-Jul-26 17:33N 35°28' E 139°48'1211.7
2015-Jul-26 16:33N 35°16' E 139°47'1212.4
2015-Jul-26 15:34N 35°04' E 139°44'1714.8
2015-Jul-26 14:25N 34°54' E 139°27'  
2015-Jul-23 09:32N 34°07' E 135°07'1 0.2
2015-Jul-23 07:16N 34°07' E 135°08'0 0.0
2015-Jul-23 06:29N 34°07' E 135°08'0 0.0
2015-Jul-23 05:30N 34°07' E 135°08'0 0.0
2015-Jul-23 04:31N 34°07' E 135°08'0 0.1
2015-Jul-23 03:23N 34°07' E 135°08'0 0.6
2015-Jul-23 02:33N 34°07' E 135°07'222 6.0
2015-Jul-21 13:20N 35°00' E 139°29'2011.1
2015-Jul-21 11:33N 35°14' E 139°46'1111.2
2015-Jul-21 10:33N 35°24' E 139°43'1211.5
2015-Jul-21 09:33N 35°30' E 139°55'6 5.9
2015-Jul-21 08:33N 35°31' E 140°03'0 0.0
2015-Jul-21 07:33N 35°31' E 140°03'0 0.0
2015-Jul-21 06:33N 35°31' E 140°03'0 0.0
2015-Jul-21 05:33N 35°31' E 140°03'0 0.0
2015-Jul-21 04:33N 35°31' E 140°03'0 0.0
2015-Jul-21 03:33N 35°31' E 140°03'0 0.0
2015-Jul-21 02:33N 35°31' E 140°03'0 0.0
2015-Jul-21 01:33N 35°31' E 140°03'1 1.2
2015-Jul-21 00:32N 35°32' E 140°02'0 0.0
2015-Jul-20 23:33N 35°32' E 140°02'0 0.0
2015-Jul-20 22:33N 35°32' E 140°02'0 0.1
2015-Jul-20 21:33N 35°32' E 140°02'5 5.3
2015-Jul-20 20:32N 35°36' E 140°06'0 0.0
2015-Jul-20 19:33N 35°36' E 140°06'0 0.0
2015-Jul-20 18:33N 35°36' E 140°06'0 0.0
2015-Jul-20 17:33N 35°36' E 140°06'0 0.0
2015-Jul-20 16:33N 35°36' E 140°06'0 0.0
2015-Jul-20 15:33N 35°36' E 140°06'0 0.0
2015-Jul-20 14:33N 35°36' E 140°06'0 0.0
2015-Jul-20 13:33N 35°36' E 140°06'0 0.0
2015-Jul-20 12:33N 35°36' E 140°06'0 0.0
2015-Jul-20 11:33N 35°36' E 140°06'0 0.0
2015-Jul-20 10:33N 35°36' E 140°06'0 0.0
2015-Jul-20 09:33N 35°36' E 140°06'0 0.0
2015-Jul-20 08:33N 35°36' E 140°06'0 0.0
2015-Jul-20 07:32N 35°36' E 140°06'0 0.0
2015-Jul-20 06:33N 35°36' E 140°06'0 0.0
2015-Jul-20 05:33N 35°36' E 140°06'0 0.0
2015-Jul-20 04:33N 35°36' E 140°06'0 0.0
2015-Jul-20 03:33N 35°36' E 140°06'0 0.0
2015-Jul-20 02:33N 35°36' E 140°06'0 0.0
2015-Jul-20 01:33N 35°36' E 140°06'0 0.0
2015-Jul-20 00:33N 35°36' E 140°06'0 0.0
2015-Jul-19 23:33N 35°36' E 140°06'1 0.6
2015-Jul-19 22:33N 35°35' E 140°05'4 4.0
2015-Jul-19 21:33N 35°33' E 140°01'0 0.0
2015-Jul-19 20:33N 35°33' E 140°02'0 0.0
2015-Jul-19 19:33N 35°33' E 140°02'0 0.0
2015-Jul-19 18:33N 35°33' E 140°02'0 0.1
2015-Jul-19 17:33N 35°33' E 140°02'0 0.1
2015-Jul-19 16:33N 35°33' E 140°02'0 0.0
2015-Jul-19 15:33N 35°33' E 140°02'0 0.0
2015-Jul-19 14:33N 35°33' E 140°02'0 0.0
2015-Jul-19 13:33N 35°33' E 140°02'0 0.0
2015-Jul-19 12:31N 35°33' E 140°02'0 0.0
2015-Jul-19 11:33N 35°33' E 140°02'0 0.0
2015-Jul-19 10:33N 35°33' E 140°02'0 0.0
2015-Jul-19 09:32N 35°33' E 140°02'0 0.0
2015-Jul-19 08:33N 35°33' E 140°02'0 0.0
2015-Jul-19 07:33N 35°33' E 140°02'0 0.0
2015-Jul-19 06:33N 35°33' E 140°02'1010.3
2015-Jul-19 05:33N 35°30' E 139°50'3 3.4
2015-Jul-19 04:33N 35°32' E 139°46'0 0.0
2015-Jul-19 00:33N 35°32' E 139°46'0 0.2
2015-Jul-18 23:33N 35°31' E 139°46'7 6.8
2015-Jul-18 22:33N 35°30' E 139°54'4 4.4
2015-Jul-18 21:33N 35°31' E 139°59'  

Dump ship's entire track history